Time;durP1;ratioP1;P1;durP2;ratioP2;P2;SDS_P1;SDS_P2;PMS_P1;PMS_P2;Temp;Humidity;BMP_temperature;BMP_pressure;BME280_temperature;BME280_humidity;BME280_pressure;Samples;Min_cycle;Max_cycle;Signal;HPM_P1;HPM_P2
2022/03/05 00:00:30;;;;;;;13.57;12.18;;;3.90;47.60;;;;;;5095933;28;20693;-57
2022/03/05 00:02:57;;;;;;;13.65;11.55;;;3.80;48.10;;;;;;5095650;28;20238;-56
2022/03/05 00:05:24;;;;;;;13.77;11.32;;;3.80;47.40;;;;;;5094585;28;20207;-57
2022/03/05 00:07:51;;;;;;;12.35;10.68;;;3.80;47.50;;;;;;5095459;28;20301;-57
2022/03/05 00:10:19;;;;;;;17.38;12.57;;;3.80;47.60;;;;;;5095759;28;20316;-57
2022/03/05 00:12:47;;;;;;;13.75;12.40;;;3.70;47.40;;;;;;5095768;28;20236;-57
2022/03/05 00:15:14;;;;;;;13.32;11.45;;;3.60;48.80;;;;;;5095971;28;20235;-57
2022/03/05 00:17:41;;;;;;;11.60;10.50;;;3.60;48.00;;;;;;5095571;28;20231;-57
2022/03/05 00:20:09;;;;;;;12.00;10.93;;;3.60;48.10;;;;;;5095179;28;20630;-57
2022/03/05 00:22:36;;;;;;;10.85;9.90;;;3.60;47.80;;;;;;5095010;28;20236;-57
2022/03/05 00:25:03;;;;;;;11.23;10.32;;;3.60;48.20;;;;;;5095567;28;20227;-57
2022/03/05 00:27:30;;;;;;;12.77;11.55;;;3.60;48.10;;;;;;5095434;28;20290;-57
2022/03/05 00:29:58;;;;;;;11.20;10.20;;;3.60;47.90;;;;;;5095399;28;20208;-57
2022/03/05 00:32:25;;;;;;;11.70;10.40;;;3.60;48.60;;;;;;5095460;28;20207;-57
2022/03/05 00:34:52;;;;;;;11.95;10.73;;;3.50;48.70;;;;;;5095331;28;20206;-57
2022/03/05 00:37:19;;;;;;;11.55;10.45;;;3.50;48.90;;;;;;5093783;28;20220;-57
2022/03/05 00:39:46;;;;;;;11.40;9.90;;;3.50;49.10;;;;;;5095223;28;20224;-57
2022/03/05 00:42:13;;;;;;;12.00;10.75;;;3.50;49.30;;;;;;5095134;28;20282;-57
2022/03/05 00:44:40;;;;;;;11.35;10.10;;;3.50;49.40;;;;;;5095107;28;20208;-57
2022/03/05 00:47:09;;;;;;;12.00;10.80;;;3.50;49.30;;;;;;5095091;28;20658;-57
2022/03/05 00:49:35;;;;;;;11.45;9.73;;;3.50;49.70;;;;;;5094936;28;20231;-57
2022/03/05 00:52:03;;;;;;;11.52;10.43;;;3.50;49.70;;;;;;5093657;28;20283;-57
2022/03/05 00:54:30;;;;;;;12.30;11.02;;;3.40;50.00;;;;;;5094850;28;20208;-57
2022/03/05 00:56:56;;;;;;;10.98;9.90;;;3.50;49.40;;;;;;5094988;28;20290;-57
2022/03/05 00:59:23;;;;;;;13.05;10.63;;;3.50;49.70;;;;;;5094739;28;20232;-57
2022/03/05 01:01:50;;;;;;;10.93;9.68;;;3.40;49.80;;;;;;5094759;28;20290;-57
2022/03/05 01:04:18;;;;;;;12.88;10.88;;;3.40;50.10;;;;;;5094417;28;20253;-57
2022/03/05 01:06:45;;;;;;;11.98;10.88;;;3.30;50.60;;;;;;5093472;28;20200;-57
2022/03/05 01:09:12;;;;;;;12.60;10.80;;;3.30;50.30;;;;;;5093740;28;20214;-57
2022/03/05 01:11:39;;;;;;;12.23;10.70;;;3.30;50.50;;;;;;5094111;28;20214;-57
2022/03/05 01:14:07;;;;;;;11.20;10.20;;;3.40;50.40;;;;;;5094524;28;20207;-57
2022/03/05 01:16:34;;;;;;;11.40;10.27;;;3.40;50.20;;;;;;5094541;28;20204;-57
2022/03/05 01:19:01;;;;;;;11.23;10.15;;;3.40;50.70;;;;;;5094108;28;20234;-57
2022/03/05 01:21:29;;;;;;;14.38;11.00;;;3.30;50.50;;;;;;5092975;28;20214;-57
2022/03/05 01:23:57;;;;;;;12.73;10.75;;;3.30;50.40;;;;;;5094122;28;20283;-56
2022/03/05 01:26:24;;;;;;;12.30;10.85;;;3.40;50.20;;;;;;5094200;28;20204;-57
2022/03/05 01:28:51;;;;;;;12.05;10.90;;;3.30;50.20;;;;;;5094112;28;20299;-57
2022/03/05 01:31:18;;;;;;;12.23;11.00;;;3.30;50.40;;;;;;5093919;28;20231;-57
2022/03/05 01:33:44;;;;;;;11.45;10.45;;;3.20;52.50;;;;;;5094081;28;20236;-57
2022/03/05 01:36:11;;;;;;;14.00;10.73;;;3.20;51.50;;;;;;5092691;28;20278;-57
2022/03/05 01:38:39;;;;;;;12.57;10.70;;;3.20;51.00;;;;;;5093677;28;20258;-57
2022/03/05 01:41:06;;;;;;;11.73;10.63;;;3.20;51.20;;;;;;5093972;28;20292;-57
2022/03/05 01:43:33;;;;;;;11.57;10.48;;;3.20;51.00;;;;;;5093811;28;20291;-57
2022/03/05 01:46:00;;;;;;;11.57;10.32;;;3.20;51.00;;;;;;5093493;28;20655;-57
2022/03/05 01:48:27;;;;;;;12.18;10.90;;;3.20;51.50;;;;;;5093807;28;20214;-57
2022/03/05 01:50:54;;;;;;;12.05;10.50;;;3.10;51.00;;;;;;5092442;28;20211;-57
2022/03/05 01:53:21;;;;;;;11.43;10.25;;;3.10;50.80;;;;;;5093558;28;20290;-57
2022/03/05 01:55:49;;;;;;;11.70;10.50;;;3.10;50.70;;;;;;5093581;28;20222;-57
2022/03/05 01:58:16;;;;;;;12.35;11.10;;;3.10;50.80;;;;;;5093471;28;20227;-57
2022/03/05 02:00:43;;;;;;;12.18;10.50;;;3.10;50.80;;;;;;5093598;28;20302;-56
2022/03/05 02:03:10;;;;;;;12.15;10.90;;;3.00;51.60;;;;;;5093303;28;20232;-57
2022/03/05 02:05:37;;;;;;;11.85;10.60;;;3.00;52.00;;;;;;5092054;28;20659;-57
2022/03/05 02:08:05;;;;;;;12.05;10.77;;;2.90;52.00;;;;;;5093140;28;20239;-57
2022/03/05 02:10:32;;;;;;;12.63;11.20;;;2.90;53.10;;;;;;5093278;28;20689;-57
2022/03/05 02:13:00;;;;;;;11.95;10.85;;;2.90;52.30;;;;;;5093118;28;20236;-57
2022/03/05 02:15:27;;;;;;;12.52;10.88;;;2.90;51.80;;;;;;5093330;28;20210;-57
2022/03/05 02:17:54;;;;;;;11.55;10.23;;;2.90;51.80;;;;;;5093075;28;20234;-56
2022/03/05 02:20:21;;;;;;;13.68;11.30;;;2.90;52.50;;;;;;5091802;28;20222;-57
2022/03/05 02:22:49;;;;;;;13.20;10.30;;;2.90;52.90;;;;;;5092533;28;20655;-56
2022/03/05 02:25:16;;;;;;;11.85;10.63;;;2.90;52.30;;;;;;5093024;28;20200;-57
2022/03/05 02:27:45;;;;;;;12.50;10.60;;;2.90;52.00;;;;;;5093100;28;20724;-57
2022/03/05 02:30:12;;;;;;;12.35;11.07;;;2.90;52.00;;;;;;5092871;28;20678;-57
2022/03/05 02:32:39;;;;;;;11.70;10.50;;;2.90;52.00;;;;;;5092876;28;20283;-57
2022/03/05 02:35:06;;;;;;;11.02;10.13;;;2.90;52.30;;;;;;5092970;28;20292;-56
2022/03/05 02:37:33;;;;;;;12.40;10.38;;;2.90;53.40;;;;;;5091870;28;20220;-57
2022/03/05 02:40:01;;;;;;;12.48;10.35;;;2.90;52.20;;;;;;5092622;28;20204;-57
2022/03/05 02:42:28;;;;;;;11.52;10.43;;;2.80;52.60;;;;;;5093044;28;20199;-57
2022/03/05 02:44:55;;;;;;;13.48;11.50;;;2.80;52.00;;;;;;5093244;28;20199;-57
2022/03/05 02:47:22;;;;;;;12.10;10.98;;;2.80;52.10;;;;;;5093155;28;20299;-57
2022/03/05 02:49:48;;;;;;;11.55;10.43;;;2.80;52.30;;;;;;5093141;28;20210;-56
2022/03/05 02:52:15;;;;;;;15.07;11.20;;;2.80;51.90;;;;;;5091879;28;20242;-57
2022/03/05 02:54:42;;;;;;;12.30;11.02;;;2.80;51.90;;;;;;5092734;28;20295;-56
2022/03/05 02:57:11;;;;;;;13.65;11.20;;;2.80;52.20;;;;;;5092964;28;20203;-57
2022/03/05 02:59:37;;;;;;;18.35;12.15;;;2.80;51.80;;;;;;5092931;28;20235;-57
2022/03/05 03:02:04;;;;;;;11.63;10.55;;;2.80;52.10;;;;;;5092950;28;20234;-57
2022/03/05 03:04:31;;;;;;;12.52;11.25;;;2.70;52.10;;;;;;5092828;28;20267;-56
2022/03/05 03:06:58;;;;;;;12.27;11.02;;;2.80;52.40;;;;;;5091665;28;20200;-57
2022/03/05 03:09:25;;;;;;;11.80;10.65;;;2.70;52.60;;;;;;5092557;28;20829;-57
2022/03/05 03:11:52;;;;;;;12.85;11.18;;;2.70;52.10;;;;;;5092786;28;20290;-56
2022/03/05 03:14:20;;;;;;;13.23;10.80;;;2.70;52.10;;;;;;5092884;28;20235;-57
2022/03/05 03:16:47;;;;;;;14.30;12.05;;;2.80;52.00;;;;;;5092878;28;20235;-56
2022/03/05 03:19:14;;;;;;;16.70;10.80;;;2.80;52.10;;;;;;5092694;28;20238;-57
2022/03/05 03:21:41;;;;;;;12.52;11.27;;;2.80;51.70;;;;;;5091437;28;20203;-57
2022/03/05 03:24:08;;;;;;;12.20;10.85;;;2.80;52.50;;;;;;5092549;28;20210;-57
2022/03/05 03:26:34;;;;;;;12.77;11.05;;;2.70;52.00;;;;;;5092602;28;20287;-57
2022/03/05 03:29:01;;;;;;;12.35;11.05;;;2.70;52.10;;;;;;5092727;28;20242;-57
2022/03/05 03:31:30;;;;;;;11.40;9.88;;;2.70;52.10;;;;;;5092633;28;20563;-57
2022/03/05 03:33:56;;;;;;;14.07;10.88;;;2.70;52.20;;;;;;5095045;28;20646;-57
2022/03/05 03:36:23;;;;;;;12.80;11.32;;;2.60;52.50;;;;;;5095175;28;20291;-57
2022/03/05 03:38:50;;;;;;;12.18;10.90;;;2.60;52.80;;;;;;5096292;28;20285;-57
2022/03/05 03:41:17;;;;;;;13.15;10.50;;;2.50;52.90;;;;;;5096664;28;20295;-57
2022/03/05 03:43:44;;;;;;;15.57;11.30;;;2.60;52.50;;;;;;5096706;28;20234;-57
2022/03/05 03:46:11;;;;;;;13.82;11.90;;;2.50;52.90;;;;;;5096358;28;20251;-57
2022/03/05 03:48:39;;;;;;;13.02;11.57;;;2.50;53.50;;;;;;5096668;28;20200;-56
2022/03/05 03:51:06;;;;;;;13.52;11.55;;;2.50;53.10;;;;;;5095091;28;20204;-57
2022/03/05 03:53:33;;;;;;;13.10;11.07;;;2.50;53.30;;;;;;5096124;28;20204;-57
2022/03/05 03:56:00;;;;;;;14.55;12.07;;;2.40;53.20;;;;;;5096348;28;20291;-57
2022/03/05 03:58:27;;;;;;;13.05;11.65;;;2.40;53.50;;;;;;5096052;28;20971;-56
2022/03/05 04:00:53;;;;;;;13.57;11.27;;;2.40;53.60;;;;;;5096041;28;20212;-57
2022/03/05 04:03:20;;;;;;;13.75;11.82;;;2.30;54.50;;;;;;5096017;28;20250;-57
2022/03/05 04:05:48;;;;;;;19.55;12.00;;;2.30;54.50;;;;;;5094739;28;20210;-56
2022/03/05 04:10:59;;;;;;;13.75;11.65;;;2.30;54.10;;;;;;5096033;28;20264;-57
2022/03/05 04:13:27;;;;;;;14.15;12.65;;;2.30;54.50;;;;;;5095934;28;20302;-57
2022/03/05 04:15:54;;;;;;;13.52;11.98;;;2.30;54.10;;;;;;5095896;28;20210;-57
2022/03/05 04:18:21;;;;;;;14.20;11.70;;;2.30;53.80;;;;;;5095579;28;20210;-57
2022/03/05 04:20:49;;;;;;;15.32;11.85;;;2.40;53.90;;;;;;5094585;28;20572;-57
2022/03/05 04:23:16;;;;;;;14.38;12.52;;;2.30;53.80;;;;;;5095585;28;20681;-57
2022/03/05 04:25:43;;;;;;;15.32;12.45;;;2.30;53.70;;;;;;5095636;28;20741;-57
2022/03/05 04:28:10;;;;;;;13.18;11.32;;;2.30;54.00;;;;;;5095577;28;20347;-57
2022/03/05 04:30:37;;;;;;;13.30;11.88;;;2.30;53.90;;;;;;5095425;28;20666;-56
2022/03/05 04:33:04;;;;;;;14.57;11.73;;;2.30;54.70;;;;;;5095563;28;20203;-56
2022/03/05 04:35:31;;;;;;;13.80;12.30;;;2.30;54.50;;;;;;5094268;28;20461;-57
2022/03/05 04:37:59;;;;;;;14.30;12.40;;;2.20;54.80;;;;;;5095610;28;20322;-57
2022/03/05 04:40:26;;;;;;;13.40;10.50;;;2.20;54.50;;;;;;5095103;28;20319;-57
2022/03/05 04:42:53;;;;;;;14.10;11.88;;;2.20;54.60;;;;;;5095429;28;20200;-57
2022/03/05 04:45:20;;;;;;;18.30;13.65;;;2.20;55.50;;;;;;5094978;28;20199;-57
2022/03/05 04:47:47;;;;;;;13.70;12.25;;;2.10;55.00;;;;;;5095274;28;20291;-57
2022/03/05 04:50:14;;;;;;;14.70;13.10;;;2.10;54.70;;;;;;5093954;28;20208;-56
2022/03/05 04:52:41;;;;;;;14.45;12.10;;;2.10;54.90;;;;;;5095157;28;20215;-57
2022/03/05 04:55:10;;;;;;;16.88;12.68;;;2.10;55.40;;;;;;5094860;28;20207;-57
2022/03/05 04:57:37;;;;;;;16.50;12.45;;;2.10;54.90;;;;;;5095090;28;20566;-57
2022/03/05 05:00:06;;;;;;;16.98;13.65;;;2.10;54.80;;;;;;5094792;28;20231;-57
2022/03/05 05:02:33;;;;;;;13.88;11.23;;;2.10;54.80;;;;;;5095095;28;20235;-57
2022/03/05 05:05:00;;;;;;;15.77;11.48;;;2.20;54.60;;;;;;5094748;28;20267;-57
2022/03/05 05:07:27;;;;;;;14.75;13.15;;;2.10;56.20;;;;;;5093651;28;20206;-57
2022/03/05 05:09:54;;;;;;;18.13;12.00;;;2.10;55.60;;;;;;5094736;28;20250;-57
2022/03/05 05:12:22;;;;;;;14.10;12.43;;;2.00;55.20;;;;;;5094712;28;20246;-56
2022/03/05 05:14:49;;;;;;;16.00;12.75;;;2.00;55.30;;;;;;5094682;28;20726;-57
2022/03/05 05:17:16;;;;;;;15.68;13.98;;;2.10;55.10;;;;;;5094748;28;20645;-57
2022/03/05 05:19:43;;;;;;;16.33;11.65;;;2.10;55.40;;;;;;5094603;28;20319;-57
2022/03/05 05:22:11;;;;;;;18.05;11.70;;;2.10;55.30;;;;;;5093468;28;20204;-57
2022/03/05 05:24:39;;;;;;;14.82;12.63;;;2.10;55.30;;;;;;5094371;28;20204;-57
2022/03/05 05:27:06;;;;;;;17.48;15.45;;;2.10;55.40;;;;;;5094468;28;20291;-57
2022/03/05 05:29:34;;;;;;;17.85;14.55;;;2.10;55.50;;;;;;5094347;28;20222;-57
2022/03/05 05:32:01;;;;;;;20.40;13.18;;;2.10;56.00;;;;;;5094507;28;20287;-57
2022/03/05 05:34:28;;;;;;;17.55;14.38;;;2.00;55.90;;;;;;5094432;28;20235;-57
2022/03/05 05:36:55;;;;;;;17.40;13.35;;;2.00;56.00;;;;;;5092973;28;20220;-57
2022/03/05 05:39:22;;;;;;;20.30;14.80;;;2.00;55.90;;;;;;5094023;28;20238;-56
2022/03/05 05:41:49;;;;;;;18.70;14.77;;;2.00;56.20;;;;;;5094028;28;20317;-56
2022/03/05 05:44:15;;;;;;;16.35;13.75;;;1.90;56.10;;;;;;5094222;28;20667;-56
2022/03/05 05:46:44;;;;;;;17.75;14.75;;;1.90;56.40;;;;;;5094080;28;20202;-57
2022/03/05 05:49:10;;;;;;;19.08;13.93;;;1.90;56.30;;;;;;5094069;28;20295;-57
2022/03/05 05:51:37;;;;;;;20.42;15.23;;;1.90;56.20;;;;;;5092691;28;20204;-57
2022/03/05 05:54:05;;;;;;;18.65;13.77;;;1.90;56.50;;;;;;5093741;28;20299;-56
2022/03/05 05:56:32;;;;;;;20.10;13.43;;;1.90;56.60;;;;;;5093189;28;20203;-56
2022/03/05 05:58:58;;;;;;;20.92;15.93;;;1.80;57.40;;;;;;5093934;28;20230;-57
2022/03/05 06:01:25;;;;;;;21.77;14.55;;;1.80;57.00;;;;;;5093785;28;20254;-57
2022/03/05 06:03:55;;;;;;;20.77;14.52;;;1.80;57.30;;;;;;5093681;28;20254;-57
2022/03/05 06:06:22;;;;;;;23.63;15.45;;;1.80;57.30;;;;;;5092500;28;20208;-56
2022/03/05 06:08:49;;;;;;;20.52;14.88;;;1.90;57.10;;;;;;5093434;28;20200;-57
2022/03/05 06:11:16;;;;;;;20.77;13.60;;;1.80;58.30;;;;;;5093641;28;20706;-56
2022/03/05 06:13:43;;;;;;;19.50;16.00;;;1.80;58.00;;;;;;5093614;28;20574;-56
2022/03/05 06:16:11;;;;;;;21.77;14.98;;;1.80;57.60;;;;;;5093613;28;20200;-57
2022/03/05 06:18:38;;;;;;;24.38;16.23;;;1.80;58.60;;;;;;5093475;28;20250;-57
2022/03/05 06:21:07;;;;;;;24.13;15.20;;;1.80;57.80;;;;;;5092156;28;20228;-57
2022/03/05 06:23:34;;;;;;;23.88;15.98;;;1.80;58.30;;;;;;5093376;28;20208;-56
2022/03/05 06:26:01;;;;;;;20.10;15.57;;;1.90;58.00;;;;;;5093584;28;20613;-57
2022/03/05 06:28:28;;;;;;;22.50;16.83;;;1.90;57.80;;;;;;5093353;28;20204;-57
2022/03/05 06:30:55;;;;;;;19.13;14.98;;;1.80;58.70;;;;;;5093479;28;20565;-56
2022/03/05 06:33:22;;;;;;;21.98;15.32;;;1.70;59.40;;;;;;5093357;28;20723;-57
2022/03/05 06:35:49;;;;;;;22.38;16.08;;;1.60;61.20;;;;;;5091828;28;20622;-57
2022/03/05 06:38:17;;;;;;;18.95;15.63;;;1.50;61.10;;;;;;5093242;28;20211;-56
2022/03/05 06:40:45;;;;;;;22.75;16.00;;;1.40;60.90;;;;;;5092982;28;20232;-57
2022/03/05 06:43:12;;;;;;;22.17;15.70;;;1.40;60.50;;;;;;5093142;28;20207;-57
2022/03/05 06:45:39;;;;;;;24.08;15.77;;;1.40;61.80;;;;;;5093236;28;20200;-57
2022/03/05 06:48:07;;;;;;;21.17;16.05;;;1.50;61.50;;;;;;5093236;28;20610;-57
2022/03/05 06:50:34;;;;;;;23.95;16.35;;;1.50;61.70;;;;;;5091629;28;20690;-57
2022/03/05 06:53:01;;;;;;;24.30;17.02;;;1.30;63.40;;;;;;5093086;28;20202;-57
2022/03/05 06:55:29;;;;;;;25.55;16.40;;;1.30;61.80;;;;;;5092804;28;20283;-56
2022/03/05 06:57:56;;;;;;;20.77;15.40;;;1.30;63.20;;;;;;5092985;28;20279;-56
2022/03/05 07:00:23;;;;;;;22.05;15.18;;;1.40;62.40;;;;;;5092804;28;20239;-57
2022/03/05 07:02:50;;;;;;;23.95;16.75;;;1.40;63.30;;;;;;5092942;28;20200;-56
2022/03/05 07:05:17;;;;;;;23.92;15.93;;;1.40;63.20;;;;;;5091605;28;20232;-56
2022/03/05 07:07:44;;;;;;;19.55;15.13;;;1.40;63.10;;;;;;5094636;28;20283;-57
2022/03/05 07:10:11;;;;;;;21.77;14.93;;;1.40;63.10;;;;;;5096988;28;20684;-57
2022/03/05 07:12:40;;;;;;;21.00;15.13;;;1.40;62.90;;;;;;5097009;28;20200;-57
2022/03/05 07:15:07;;;;;;;24.10;15.98;;;1.40;62.40;;;;;;5097022;28;20199;-57
2022/03/05 07:17:34;;;;;;;20.70;16.08;;;1.40;63.40;;;;;;5096824;28;20206;-57
2022/03/05 07:20:01;;;;;;;22.17;15.45;;;1.40;63.50;;;;;;5096817;28;20234;-57
2022/03/05 07:22:28;;;;;;;20.10;14.45;;;1.50;62.70;;;;;;5095782;28;20210;-57
2022/03/05 07:24:55;;;;;;;22.02;16.90;;;1.60;62.90;;;;;;5096793;28;20203;-56
2022/03/05 07:27:22;;;;;;;23.17;15.60;;;1.70;63.00;;;;;;5096756;28;20200;-57
2022/03/05 07:29:50;;;;;;;23.38;16.20;;;1.60;64.10;;;;;;5096585;28;20239;-56
2022/03/05 07:32:17;;;;;;;21.33;16.30;;;1.60;63.80;;;;;;5096755;28;20251;-57
2022/03/05 07:34:44;;;;;;;22.75;15.48;;;1.60;64.10;;;;;;5096577;28;20204;-57
2022/03/05 07:37:10;;;;;;;22.45;15.80;;;1.60;63.80;;;;;;5095452;28;20248;-57
2022/03/05 07:39:37;;;;;;;21.05;15.20;;;1.70;63.80;;;;;;5096610;28;20583;-57
2022/03/05 07:42:05;;;;;;;22.75;13.93;;;1.70;64.10;;;;;;5096617;28;20299;-57
2022/03/05 07:44:32;;;;;;;22.77;16.20;;;1.80;63.20;;;;;;5096541;28;20199;-57
2022/03/05 07:47:00;;;;;;;24.98;15.27;;;1.80;64.60;;;;;;5096368;28;20208;-57
2022/03/05 07:49:28;;;;;;;20.27;15.57;;;1.80;65.00;;;;;;5096364;28;20211;-56
2022/03/05 07:51:56;;;;;;;24.63;16.90;;;1.80;64.60;;;;;;5095102;28;20204;-57
2022/03/05 07:54:23;;;;;;;24.10;16.63;;;1.90;64.70;;;;;;5096185;28;20200;-57
2022/03/05 07:56:50;;;;;;;19.90;14.32;;;1.90;65.00;;;;;;5096266;28;20620;-57
2022/03/05 07:59:17;;;;;;;20.02;15.75;;;1.90;65.10;;;;;;5096076;28;20200;-57
2022/03/05 08:01:44;;;;;;;27.83;17.08;;;2.00;64.70;;;;;;5096161;28;20206;-56
2022/03/05 08:04:13;;;;;;;25.55;16.92;;;2.00;64.30;;;;;;5096010;28;20227;-56
2022/03/05 08:06:39;;;;;;;24.85;16.42;;;2.20;63.90;;;;;;5094705;28;20200;-57
2022/03/05 08:09:06;;;;;;;24.83;17.33;;;2.30;64.00;;;;;;5095956;28;20296;-57
2022/03/05 08:11:33;;;;;;;23.83;15.60;;;2.40;63.60;;;;;;5096016;28;20211;-56
2022/03/05 08:14:00;;;;;;;22.83;14.48;;;2.50;63.40;;;;;;5095802;28;20199;-57
2022/03/05 08:16:27;;;;;;;21.58;15.90;;;2.60;62.90;;;;;;5095802;28;20562;-56
2022/03/05 08:18:54;;;;;;;30.77;16.23;;;2.60;62.80;;;;;;5095004;28;20634;-57
2022/03/05 08:21:22;;;;;;;24.25;15.20;;;2.70;63.30;;;;;;5094429;28;20318;-57
2022/03/05 08:23:49;;;;;;;21.60;15.82;;;2.60;63.80;;;;;;5095704;28;20243;-57
2022/03/05 08:26:16;;;;;;;21.95;16.70;;;2.60;63.80;;;;;;5095688;28;20287;-57
2022/03/05 08:28:44;;;;;;;22.77;16.50;;;2.70;63.00;;;;;;5095454;28;20610;-57
2022/03/05 08:31:12;;;;;;;25.65;15.43;;;2.70;62.80;;;;;;5095418;28;20608;-57
2022/03/05 08:33:39;;;;;;;26.02;16.30;;;2.80;62.80;;;;;;5095471;28;20278;-57
2022/03/05 08:36:06;;;;;;;23.88;17.38;;;2.90;62.60;;;;;;5094196;28;20219;-57
2022/03/05 08:38:36;;;;;;;21.85;15.30;;;2.80;63.70;;;;;;5095417;28;20235;-57
2022/03/05 08:41:03;;;;;;;18.98;14.95;;;2.90;63.20;;;;;;5094907;28;20247;-56
2022/03/05 08:43:30;;;;;;;25.85;16.42;;;2.90;63.30;;;;;;5095437;28;20295;-57
2022/03/05 08:45:57;;;;;;;25.77;15.82;;;2.90;62.80;;;;;;5095309;28;20230;-57
2022/03/05 08:48:24;;;;;;;22.80;15.48;;;3.00;62.50;;;;;;5095179;28;20204;-57
2022/03/05 08:50:51;;;;;;;21.95;16.88;;;3.20;61.80;;;;;;5094052;28;20210;-57
2022/03/05 08:53:18;;;;;;;19.67;14.65;;;3.20;61.60;;;;;;5095164;28;20284;-57
2022/03/05 08:55:46;;;;;;;25.02;16.30;;;3.20;61.90;;;;;;5094871;28;20223;-56
2022/03/05 08:58:13;;;;;;;21.35;15.60;;;3.20;61.80;;;;;;5095269;28;20302;-57
2022/03/05 09:00:40;;;;;;;20.42;15.82;;;3.20;62.40;;;;;;5094887;28;20256;-57
2022/03/05 09:03:07;;;;;;;20.02;15.05;;;3.20;62.10;;;;;;5094822;28;20236;-56
2022/03/05 09:05:34;;;;;;;23.38;16.25;;;3.30;62.00;;;;;;5093571;28;20291;-56
2022/03/05 09:08:00;;;;;;;25.30;14.85;;;3.40;61.80;;;;;;5094858;28;20203;-56
2022/03/05 09:10:27;;;;;;;20.48;15.65;;;3.40;61.50;;;;;;5094573;28;20214;-57
2022/03/05 09:12:56;;;;;;;22.50;16.05;;;3.50;61.60;;;;;;5094953;28;20203;-57
2022/03/05 09:15:23;;;;;;;19.40;15.20;;;3.50;61.10;;;;;;5094824;28;20210;-57
2022/03/05 09:17:50;;;;;;;20.52;15.93;;;3.40;61.70;;;;;;5085787;28;20598;-57
2022/03/05 09:20:17;;;;;;;17.70;13.23;;;3.60;60.90;;;;;;5076392;28;20238;-56
2022/03/05 09:22:44;;;;;;;20.95;15.25;;;3.60;61.00;;;;;;5073469;28;20215;-57
2022/03/05 09:25:12;;;;;;;16.50;14.82;;;3.60;60.50;;;;;;5087863;28;20629;-56
2022/03/05 09:27:39;;;;;;;21.40;14.90;;;3.70;60.50;;;;;;5093665;28;20207;-55
2022/03/05 09:30:09;;;;;;;19.20;15.10;;;3.80;60.00;;;;;;5093173;28;20208;-56
2022/03/05 09:32:36;;;;;;;20.27;14.77;;;3.80;59.90;;;;;;5093059;28;20203;-57
2022/03/05 09:35:03;;;;;;;16.85;14.10;;;3.80;58.50;;;;;;5093547;28;20327;-56
2022/03/05 09:37:31;;;;;;;18.95;15.90;;;3.90;59.40;;;;;;5092226;28;20211;-56
2022/03/05 09:39:58;;;;;;;17.42;14.88;;;4.10;58.70;;;;;;5093348;28;20204;-56
2022/03/05 09:42:26;;;;;;;17.45;13.27;;;4.30;58.70;;;;;;5093399;28;20288;-57
2022/03/05 09:44:53;;;;;;;19.05;14.13;;;4.30;57.50;;;;;;5093407;28;20721;-54
2022/03/05 09:47:23;;;;;;;16.95;13.60;;;4.40;56.70;;;;;;5093539;28;20200;-56
2022/03/05 09:49:50;;;;;;;18.50;14.38;;;4.40;57.00;;;;;;5093269;28;20291;-56
2022/03/05 09:52:16;;;;;;;17.13;13.15;;;4.50;56.10;;;;;;5092058;28;20204;-57
2022/03/05 09:54:43;;;;;;;15.43;13.43;;;4.60;56.30;;;;;;5093315;28;20210;-56
2022/03/05 09:57:11;;;;;;;17.08;14.23;;;4.70;55.60;;;;;;5093286;28;20287;-57
2022/03/05 09:59:38;;;;;;;17.70;13.30;;;4.90;54.40;;;;;;5092994;28;20656;-55
2022/03/05 10:02:07;;;;;;;15.52;12.13;;;4.90;54.70;;;;;;5093018;28;20234;-56
2022/03/05 10:04:35;;;;;;;16.08;13.27;;;5.00;53.30;;;;;;5092543;28;20240;-57
2022/03/05 10:07:13;;;;;;;18.00;14.10;;;4.90;53.60;;;;;;5091856;28;20204;-58
2022/03/05 10:09:42;;;;;;;14.27;12.85;;;5.00;53.90;;;;;;5092960;28;20229;-57
2022/03/05 10:12:29;;;;;;;14.73;12.57;;;5.00;53.40;;;;;;5092778;28;20204;-58
2022/03/05 10:15:10;;;;;;;14.60;12.93;;;5.20;52.90;;;;;;5072356;28;20211;-57
2022/03/05 10:17:57;;;;;;;15.00;13.50;;;5.30;51.60;;;;;;5072626;28;20655;-58
2022/03/05 10:20:28;;;;;;;13.70;12.00;;;5.50;52.40;;;;;;5071124;28;20231;-57
2022/03/05 10:22:57;;;;;;;15.55;13.18;;;5.50;51.80;;;;;;5072593;28;20204;-57
2022/03/05 10:25:33;;;;;;;14.98;12.35;;;5.70;51.00;;;;;;5071719;28;20320;-56
2022/03/05 10:28:07;;;;;;;17.35;12.80;;;5.80;49.80;;;;;;5073299;28;20646;-56
2022/03/05 10:30:35;;;;;;;14.13;12.70;;;5.90;50.80;;;;;;5084934;28;20703;-57
2022/03/05 10:33:02;;;;;;;12.35;11.05;;;6.00;49.70;;;;;;5093297;28;20211;-56
2022/03/05 10:35:31;;;;;;;13.10;11.75;;;6.20;48.20;;;;;;5091865;28;20252;-56
2022/03/05 10:37:58;;;;;;;13.15;11.85;;;6.20;48.30;;;;;;5093109;28;20290;-58
2022/03/05 10:40:33;;;;;;;12.00;10.80;;;6.10;46.50;;;;;;5093064;28;20246;-56
2022/03/05 10:43:06;;;;;;;13.15;11.05;;;6.10;47.00;;;;;;5092821;28;20672;-56
2022/03/05 10:45:49;;;;;;;12.45;11.35;;;6.20;46.90;;;;;;5093206;28;20196;-56
2022/03/05 10:48:24;;;;;;;14.00;12.57;;;6.40;47.70;;;;;;5093061;28;20282;-56
2022/03/05 10:51:00;;;;;;;13.63;11.80;;;6.60;48.70;;;;;;5091856;28;20227;-56
2022/03/05 10:53:39;;;;;;;13.38;12.15;;;6.70;46.70;;;;;;5093196;28;20263;-56
2022/03/05 10:56:36;;;;;;;13.40;11.73;;;6.70;46.40;;;;;;5092840;28;20235;-56
2022/03/05 10:59:07;;;;;;;14.60;12.35;;;6.90;46.40;;;;;;5030749;28;20284;-57
2022/03/05 11:01:37;;;;;;;14.18;12.38;;;7.20;45.70;;;;;;5059698;28;20318;-57
2022/03/05 11:04:05;;;;;;;14.25;11.65;;;7.20;45.40;;;;;;5072538;28;20237;-57
2022/03/05 11:06:38;;;;;;;14.38;12.88;;;7.30;45.50;;;;;;5071700;28;20270;-57
2022/03/05 11:09:06;;;;;;;15.63;13.32;;;7.40;45.90;;;;;;5072541;28;20201;-56
2022/03/05 11:11:35;;;;;;;14.30;12.90;;;7.30;43.80;;;;;;5072616;28;20422;-57
2022/03/05 11:14:02;;;;;;;15.43;12.45;;;7.30;45.30;;;;;;5072543;28;20204;-57
2022/03/05 11:16:30;;;;;;;15.55;13.35;;;7.50;45.30;;;;;;5072519;28;20200;-57
2022/03/05 11:18:58;;;;;;;15.10;13.05;;;7.60;44.50;;;;;;5072584;28;20207;-57
2022/03/05 11:21:28;;;;;;;16.83;13.32;;;7.90;44.20;;;;;;5071237;28;20238;-57
2022/03/05 11:23:56;;;;;;;14.30;13.00;;;8.30;44.30;;;;;;5072389;28;20197;-57
2022/03/05 11:26:24;;;;;;;13.80;12.50;;;8.70;42.10;;;;;;5072343;28;20311;-57
2022/03/05 11:28:52;;;;;;;13.68;12.00;;;10.00;40.30;;;;;;5072622;28;20212;-57
2022/03/05 11:31:21;;;;;;;15.02;13.50;;;11.50;36.60;;;;;;5090575;28;20216;-59
2022/03/05 11:33:48;;;;;;;13.68;11.48;;;13.10;37.10;;;;;;5092597;28;20200;-59
2022/03/05 11:36:30;;;;;;;14.98;13.68;;;14.60;32.90;;;;;;5091292;28;20204;-60
2022/03/05 11:39:10;;;;;;;16.55;13.43;;;15.90;31.20;;;;;;5092566;28;20655;-59
2022/03/05 11:41:59;;;;;;;13.73;12.38;;;17.10;28.40;;;;;;5092332;28;20639;-59
2022/03/05 11:44:28;;;;;;;13.70;12.40;;;18.20;28.50;;;;;;5092451;28;20203;-57
2022/03/05 11:47:24;;;;;;;13.50;12.20;;;19.20;26.90;;;;;;5092576;28;20207;-57
2022/03/05 11:50:11;;;;;;;12.90;10.03;;;19.50;23.80;;;;;;5092559;28;20518;-57
2022/03/05 11:53:08;;;;;;;14.50;13.30;;;19.20;24.00;;;;;;5091935;28;20986;-57
2022/03/05 11:55:42;;;;;;;14.00;12.80;;;19.80;23.90;;;;;;5032995;28;20817;-58
2022/03/05 11:58:34;;;;;;;13.70;12.50;;;20.40;21.70;;;;;;5084410;28;20936;-58
2022/03/05 12:01:33;;;;;;;13.90;12.50;;;20.20;22.40;;;;;;5081126;28;20481;-57
2022/03/05 12:04:04;;;;;;;13.90;12.70;;;20.20;26.10;;;;;;5095984;28;20478;-57
2022/03/05 12:06:43;;;;;;;15.37;13.97;;;20.90;23.90;;;;;;5094750;28;20445;-58
2022/03/05 12:09:32;;;;;;;14.83;13.53;;;20.60;23.70;;;;;;5096013;28;20955;-58
2022/03/05 12:12:01;;;;;;;14.63;13.13;;;20.50;24.00;;;;;;5095770;28;20453;-57
2022/03/05 12:15:01;;;;;;;15.07;13.80;;;20.00;24.40;;;;;;5096000;28;20439;-56
2022/03/05 12:17:34;;;;;;;14.90;13.60;;;19.30;22.90;;;;;;5095834;28;20454;-57
2022/03/05 12:20:01;;;;;;;12.57;11.40;;;18.40;25.30;;;;;;5095882;28;20449;-59
2022/03/05 12:22:28;;;;;;;15.63;14.20;;;17.30;25.20;;;;;;5094305;28;20525;-58
2022/03/05 12:24:55;;;;;;;15.73;14.23;;;16.60;25.90;;;;;;5095476;28;20556;-57
2022/03/05 12:27:25;;;;;;;14.95;13.60;;;15.40;27.60;;;;;;5095757;28;20208;-57
2022/03/05 12:29:53;;;;;;;15.57;14.07;;;14.20;28.70;;;;;;5095521;28;20680;-56
2022/03/05 12:32:28;;;;;;;14.10;12.75;;;13.40;29.80;;;;;;5095438;28;20758;-57
2022/03/05 12:35:03;;;;;;;14.75;13.27;;;12.90;30.50;;;;;;5095367;28;20210;-57
2022/03/05 12:37:31;;;;;;;14.60;13.30;;;12.30;31.30;;;;;;5094123;28;20231;-57
2022/03/05 12:39:58;;;;;;;12.65;11.45;;;12.10;31.10;;;;;;5095279;28;20211;-57
2022/03/05 12:42:37;;;;;;;15.10;13.55;;;11.70;32.60;;;;;;5095384;28;20242;-57
2022/03/05 12:45:06;;;;;;;14.80;13.48;;;11.20;31.80;;;;;;5095296;28;20200;-56